sensor_id;sensor_type;location;lat;lon;timestamp;P1;durP1;ratioP1;P2;durP2;ratioP2
59006;SDS011;44792;52.760;6.726;2024-02-26T00:02:18;16.42;;;10.50;;
59006;SDS011;44792;52.760;6.726;2024-02-26T00:04:43;16.95;;;11.13;;
59006;SDS011;44792;52.760;6.726;2024-02-26T00:07:09;17.17;;;11.07;;
59006;SDS011;44792;52.760;6.726;2024-02-26T00:09:35;17.33;;;11.65;;
59006;SDS011;44792;52.760;6.726;2024-02-26T00:12:02;17.92;;;11.50;;
59006;SDS011;44792;52.760;6.726;2024-02-26T00:14:31;20.17;;;12.15;;
59006;SDS011;44792;52.760;6.726;2024-02-26T00:16:57;16.92;;;11.52;;
59006;SDS011;44792;52.760;6.726;2024-02-26T00:19:22;18.80;;;11.10;;
59006;SDS011;44792;52.760;6.726;2024-02-26T00:21:48;18.88;;;11.52;;
59006;SDS011;44792;52.760;6.726;2024-02-26T00:24:14;17.70;;;11.60;;
59006;SDS011;44792;52.760;6.726;2024-02-26T00:26:39;17.52;;;11.20;;
59006;SDS011;44792;52.760;6.726;2024-02-26T00:29:05;17.80;;;11.57;;
59006;SDS011;44792;52.760;6.726;2024-02-26T00:31:31;14.43;;;10.52;;
59006;SDS011;44792;52.760;6.726;2024-02-26T00:33:56;18.85;;;10.95;;
59006;SDS011;44792;52.760;6.726;2024-02-26T00:36:25;16.27;;;11.23;;
59006;SDS011;44792;52.760;6.726;2024-02-26T00:38:51;16.33;;;11.77;;
59006;SDS011;44792;52.760;6.726;2024-02-26T00:41:17;18.85;;;12.00;;
59006;SDS011;44792;52.760;6.726;2024-02-26T00:43:43;18.67;;;11.88;;
59006;SDS011;44792;52.760;6.726;2024-02-26T00:46:09;21.05;;;12.90;;
59006;SDS011;44792;52.760;6.726;2024-02-26T00:48:35;22.92;;;13.05;;
59006;SDS011;44792;52.760;6.726;2024-02-26T00:51:02;18.92;;;12.90;;
59006;SDS011;44792;52.760;6.726;2024-02-26T00:53:30;16.92;;;12.05;;
59006;SDS011;44792;52.760;6.726;2024-02-26T00:55:56;18.27;;;12.10;;
59006;SDS011;44792;52.760;6.726;2024-02-26T00:58:24;19.75;;;12.88;;
59006;SDS011;44792;52.760;6.726;2024-02-26T01:00:50;19.10;;;12.38;;
59006;SDS011;44792;52.760;6.726;2024-02-26T01:03:17;20.52;;;12.95;;
59006;SDS011;44792;52.760;6.726;2024-02-26T01:05:43;21.05;;;11.75;;
59006;SDS011;44792;52.760;6.726;2024-02-26T01:08:09;19.20;;;11.80;;
59006;SDS011;44792;52.760;6.726;2024-02-26T01:10:34;16.13;;;12.15;;
59006;SDS011;44792;52.760;6.726;2024-02-26T01:13:00;17.50;;;12.25;;
59006;SDS011;44792;52.760;6.726;2024-02-26T01:15:26;19.02;;;12.18;;
59006;SDS011;44792;52.760;6.726;2024-02-26T01:17:52;19.00;;;12.35;;
59006;SDS011;44792;52.760;6.726;2024-02-26T01:20:18;19.73;;;12.88;;
59006;SDS011;44792;52.760;6.726;2024-02-26T01:22:44;19.05;;;12.10;;
59006;SDS011;44792;52.760;6.726;2024-02-26T01:25:10;22.20;;;13.15;;
59006;SDS011;44792;52.760;6.726;2024-02-26T01:27:36;19.80;;;12.35;;
59006;SDS011;44792;52.760;6.726;2024-02-26T01:30:03;21.42;;;12.15;;
59006;SDS011;44792;52.760;6.726;2024-02-26T01:32:31;18.00;;;11.98;;
59006;SDS011;44792;52.760;6.726;2024-02-26T01:34:57;21.48;;;12.52;;
59006;SDS011;44792;52.760;6.726;2024-02-26T01:37:23;19.33;;;11.63;;
59006;SDS011;44792;52.760;6.726;2024-02-26T01:39:49;15.80;;;11.07;;
59006;SDS011;44792;52.760;6.726;2024-02-26T01:42:14;18.55;;;12.23;;
59006;SDS011;44792;52.760;6.726;2024-02-26T01:44:40;18.08;;;11.90;;
59006;SDS011;44792;52.760;6.726;2024-02-26T01:47:07;20.88;;;12.75;;
59006;SDS011;44792;52.760;6.726;2024-02-26T01:49:35;17.27;;;10.85;;
59006;SDS011;44792;52.760;6.726;2024-02-26T01:52:02;17.30;;;11.15;;
59006;SDS011;44792;52.760;6.726;2024-02-26T01:54:29;17.80;;;11.38;;
59006;SDS011;44792;52.760;6.726;2024-02-26T01:56:56;17.58;;;11.07;;
59006;SDS011;44792;52.760;6.726;2024-02-26T01:59:22;21.60;;;12.82;;
59006;SDS011;44792;52.760;6.726;2024-02-26T02:01:51;17.48;;;12.00;;
59006;SDS011;44792;52.760;6.726;2024-02-26T02:04:19;20.38;;;12.50;;
59006;SDS011;44792;52.760;6.726;2024-02-26T02:06:46;19.40;;;11.88;;
59006;SDS011;44792;52.760;6.726;2024-02-26T02:09:13;18.13;;;11.48;;
59006;SDS011;44792;52.760;6.726;2024-02-26T02:11:39;21.15;;;13.10;;
59006;SDS011;44792;52.760;6.726;2024-02-26T02:14:04;21.80;;;12.73;;
59006;SDS011;44792;52.760;6.726;2024-02-26T02:16:31;20.63;;;12.85;;
59006;SDS011;44792;52.760;6.726;2024-02-26T02:18:57;20.52;;;12.45;;
59006;SDS011;44792;52.760;6.726;2024-02-26T02:21:23;22.05;;;13.88;;
59006;SDS011;44792;52.760;6.726;2024-02-26T02:23:49;22.17;;;12.63;;
59006;SDS011;44792;52.760;6.726;2024-02-26T02:26:15;20.48;;;12.40;;
59006;SDS011;44792;52.760;6.726;2024-02-26T02:28:42;21.38;;;12.95;;
59006;SDS011;44792;52.760;6.726;2024-02-26T02:31:08;20.17;;;12.13;;
59006;SDS011;44792;52.760;6.726;2024-02-26T02:33:34;22.10;;;13.43;;
59006;SDS011;44792;52.760;6.726;2024-02-26T02:36:00;22.10;;;13.07;;
59006;SDS011;44792;52.760;6.726;2024-02-26T02:38:26;24.50;;;14.13;;
59006;SDS011;44792;52.760;6.726;2024-02-26T02:40:54;23.58;;;13.00;;
59006;SDS011;44792;52.760;6.726;2024-02-26T02:43:20;22.10;;;13.70;;
59006;SDS011;44792;52.760;6.726;2024-02-26T02:45:46;24.45;;;13.80;;
59006;SDS011;44792;52.760;6.726;2024-02-26T02:48:11;24.73;;;13.48;;
59006;SDS011;44792;52.760;6.726;2024-02-26T02:50:37;25.95;;;13.57;;
59006;SDS011;44792;52.760;6.726;2024-02-26T02:53:04;27.40;;;14.93;;
59006;SDS011;44792;52.760;6.726;2024-02-26T02:55:30;27.90;;;14.75;;
59006;SDS011;44792;52.760;6.726;2024-02-26T02:57:56;25.85;;;12.95;;
59006;SDS011;44792;52.760;6.726;2024-02-26T03:00:21;27.00;;;13.43;;
59006;SDS011;44792;52.760;6.726;2024-02-26T03:02:50;26.08;;;14.48;;
59006;SDS011;44792;52.760;6.726;2024-02-26T03:05:16;27.58;;;14.20;;
59006;SDS011;44792;52.760;6.726;2024-02-26T03:07:42;27.65;;;15.75;;
59006;SDS011;44792;52.760;6.726;2024-02-26T03:10:07;28.10;;;15.10;;
59006;SDS011;44792;52.760;6.726;2024-02-26T03:12:33;28.33;;;14.90;;
59006;SDS011;44792;52.760;6.726;2024-02-26T03:14:59;31.23;;;15.63;;
59006;SDS011;44792;52.760;6.726;2024-02-26T03:17:28;32.88;;;15.30;;
59006;SDS011;44792;52.760;6.726;2024-02-26T03:19:54;32.20;;;16.17;;
59006;SDS011;44792;52.760;6.726;2024-02-26T03:22:20;32.50;;;15.57;;
59006;SDS011;44792;52.760;6.726;2024-02-26T03:24:46;30.85;;;15.38;;
59006;SDS011;44792;52.760;6.726;2024-02-26T03:27:12;31.40;;;15.32;;
59006;SDS011;44792;52.760;6.726;2024-02-26T03:29:38;27.15;;;13.88;;
59006;SDS011;44792;52.760;6.726;2024-02-26T03:32:04;30.10;;;16.08;;
59006;SDS011;44792;52.760;6.726;2024-02-26T03:34:31;30.33;;;15.75;;
59006;SDS011;44792;52.760;6.726;2024-02-26T03:36:59;31.73;;;15.32;;
59006;SDS011;44792;52.760;6.726;2024-02-26T03:39:25;30.30;;;15.68;;
59006;SDS011;44792;52.760;6.726;2024-02-26T03:41:54;32.08;;;16.27;;
59006;SDS011;44792;52.760;6.726;2024-02-26T03:44:20;34.63;;;16.60;;
59006;SDS011;44792;52.760;6.726;2024-02-26T03:46:46;33.13;;;15.98;;
59006;SDS011;44792;52.760;6.726;2024-02-26T03:49:12;31.98;;;17.23;;
59006;SDS011;44792;52.760;6.726;2024-02-26T03:51:38;35.75;;;17.58;;
59006;SDS011;44792;52.760;6.726;2024-02-26T03:54:04;32.80;;;17.60;;
59006;SDS011;44792;52.760;6.726;2024-02-26T03:56:30;40.20;;;19.50;;
59006;SDS011;44792;52.760;6.726;2024-02-26T03:58:55;38.70;;;18.85;;
59006;SDS011;44792;52.760;6.726;2024-02-26T04:01:22;37.80;;;18.52;;
59006;SDS011;44792;52.760;6.726;2024-02-26T04:03:48;45.15;;;20.73;;
59006;SDS011;44792;52.760;6.726;2024-02-26T04:06:13;43.60;;;20.15;;
59006;SDS011;44792;52.760;6.726;2024-02-26T04:08:39;44.58;;;20.85;;
59006;SDS011;44792;52.760;6.726;2024-02-26T04:11:06;42.30;;;19.70;;
59006;SDS011;44792;52.760;6.726;2024-02-26T04:13:35;42.47;;;20.13;;
59006;SDS011;44792;52.760;6.726;2024-02-26T04:16:05;43.85;;;21.40;;
59006;SDS011;44792;52.760;6.726;2024-02-26T04:18:31;42.72;;;21.20;;
59006;SDS011;44792;52.760;6.726;2024-02-26T04:20:58;44.17;;;20.63;;
59006;SDS011;44792;52.760;6.726;2024-02-26T04:23:24;41.53;;;20.17;;
59006;SDS011;44792;52.760;6.726;2024-02-26T04:25:50;39.08;;;18.63;;
59006;SDS011;44792;52.760;6.726;2024-02-26T04:28:15;41.05;;;19.63;;
59006;SDS011;44792;52.760;6.726;2024-02-26T04:30:41;45.38;;;21.15;;
59006;SDS011;44792;52.760;6.726;2024-02-26T04:33:07;44.03;;;21.13;;
59006;SDS011;44792;52.760;6.726;2024-02-26T04:35:33;46.08;;;21.27;;
59006;SDS011;44792;52.760;6.726;2024-02-26T04:38:00;46.58;;;20.90;;
59006;SDS011;44792;52.760;6.726;2024-02-26T04:40:26;50.63;;;21.95;;
59006;SDS011;44792;52.760;6.726;2024-02-26T04:42:52;47.25;;;21.10;;
59006;SDS011;44792;52.760;6.726;2024-02-26T04:45:17;52.42;;;23.00;;
59006;SDS011;44792;52.760;6.726;2024-02-26T04:47:43;47.42;;;20.58;;
59006;SDS011;44792;52.760;6.726;2024-02-26T04:50:08;45.25;;;22.05;;
59006;SDS011;44792;52.760;6.726;2024-02-26T04:52:34;45.30;;;20.30;;
59006;SDS011;44792;52.760;6.726;2024-02-26T04:55:01;47.53;;;20.83;;
59006;SDS011;44792;52.760;6.726;2024-02-26T04:57:27;43.47;;;19.45;;
59006;SDS011;44792;52.760;6.726;2024-02-26T04:59:53;45.85;;;19.80;;
59006;SDS011;44792;52.760;6.726;2024-02-26T05:02:19;40.42;;;19.60;;
59006;SDS011;44792;52.760;6.726;2024-02-26T05:04:44;42.08;;;19.58;;
59006;SDS011;44792;52.760;6.726;2024-02-26T05:07:10;38.25;;;18.25;;
59006;SDS011;44792;52.760;6.726;2024-02-26T05:09:37;36.75;;;17.95;;
59006;SDS011;44792;52.760;6.726;2024-02-26T05:12:03;34.33;;;17.35;;
59006;SDS011;44792;52.760;6.726;2024-02-26T05:14:29;38.63;;;18.45;;
59006;SDS011;44792;52.760;6.726;2024-02-26T05:16:54;35.17;;;17.52;;
59006;SDS011;44792;52.760;6.726;2024-02-26T05:19:21;31.23;;;15.52;;
59006;SDS011;44792;52.760;6.726;2024-02-26T05:21:46;34.00;;;16.95;;
59006;SDS011;44792;52.760;6.726;2024-02-26T05:24:14;35.85;;;17.80;;
59006;SDS011;44792;52.760;6.726;2024-02-26T05:26:42;38.70;;;17.13;;
59006;SDS011;44792;52.760;6.726;2024-02-26T05:29:08;32.08;;;16.85;;
59006;SDS011;44792;52.760;6.726;2024-02-26T05:31:34;29.67;;;16.08;;
59006;SDS011;44792;52.760;6.726;2024-02-26T05:34:01;31.48;;;15.65;;
59006;SDS011;44792;52.760;6.726;2024-02-26T05:36:26;27.88;;;13.85;;
59006;SDS011;44792;52.760;6.726;2024-02-26T05:38:53;30.67;;;16.45;;
59006;SDS011;44792;52.760;6.726;2024-02-26T05:41:20;25.15;;;14.18;;
59006;SDS011;44792;52.760;6.726;2024-02-26T05:43:51;27.52;;;13.95;;
59006;SDS011;44792;52.760;6.726;2024-02-26T05:46:20;28.27;;;14.35;;
59006;SDS011;44792;52.760;6.726;2024-02-26T05:48:47;22.52;;;12.73;;
59006;SDS011;44792;52.760;6.726;2024-02-26T05:51:14;28.88;;;14.35;;
59006;SDS011;44792;52.760;6.726;2024-02-26T05:53:42;21.00;;;11.80;;
59006;SDS011;44792;52.760;6.726;2024-02-26T05:56:08;21.67;;;12.15;;
59006;SDS011;44792;52.760;6.726;2024-02-26T05:58:34;23.77;;;12.30;;
59006;SDS011;44792;52.760;6.726;2024-02-26T06:01:00;22.83;;;11.52;;
59006;SDS011;44792;52.760;6.726;2024-02-26T06:03:26;21.10;;;12.00;;
59006;SDS011;44792;52.760;6.726;2024-02-26T06:05:52;19.63;;;11.63;;
59006;SDS011;44792;52.760;6.726;2024-02-26T06:08:18;20.23;;;12.07;;
59006;SDS011;44792;52.760;6.726;2024-02-26T06:10:43;18.67;;;11.23;;
59006;SDS011;44792;52.760;6.726;2024-02-26T06:13:09;19.75;;;11.38;;
59006;SDS011;44792;52.760;6.726;2024-02-26T06:15:35;18.85;;;10.07;;
59006;SDS011;44792;52.760;6.726;2024-02-26T06:18:01;20.23;;;11.00;;
59006;SDS011;44792;52.760;6.726;2024-02-26T06:20:26;20.10;;;9.88;;
59006;SDS011;44792;52.760;6.726;2024-02-26T06:22:52;15.40;;;9.45;;
59006;SDS011;44792;52.760;6.726;2024-02-26T06:25:18;19.50;;;9.65;;
59006;SDS011;44792;52.760;6.726;2024-02-26T06:27:43;16.50;;;10.00;;
59006;SDS011;44792;52.760;6.726;2024-02-26T06:30:09;17.00;;;10.48;;
59006;SDS011;44792;52.760;6.726;2024-02-26T06:32:36;15.68;;;9.55;;
59006;SDS011;44792;52.760;6.726;2024-02-26T06:35:02;17.02;;;10.38;;
59006;SDS011;44792;52.760;6.726;2024-02-26T06:37:34;21.10;;;10.05;;
59006;SDS011;44792;52.760;6.726;2024-02-26T06:40:00;19.67;;;9.93;;
59006;SDS011;44792;52.760;6.726;2024-02-26T06:42:29;15.23;;;9.52;;
59006;SDS011;44792;52.760;6.726;2024-02-26T06:44:55;14.77;;;8.88;;
59006;SDS011;44792;52.760;6.726;2024-02-26T06:47:21;17.35;;;9.02;;
59006;SDS011;44792;52.760;6.726;2024-02-26T06:49:47;16.95;;;10.23;;
59006;SDS011;44792;52.760;6.726;2024-02-26T06:52:13;16.30;;;10.00;;
59006;SDS011;44792;52.760;6.726;2024-02-26T06:54:38;13.45;;;9.18;;
59006;SDS011;44792;52.760;6.726;2024-02-26T06:57:04;17.08;;;10.00;;
59006;SDS011;44792;52.760;6.726;2024-02-26T06:59:30;16.20;;;8.80;;
59006;SDS011;44792;52.760;6.726;2024-02-26T07:01:55;15.13;;;9.15;;
59006;SDS011;44792;52.760;6.726;2024-02-26T07:04:21;15.38;;;8.63;;
59006;SDS011;44792;52.760;6.726;2024-02-26T07:06:47;16.17;;;9.88;;
59006;SDS011;44792;52.760;6.726;2024-02-26T07:09:13;13.45;;;8.30;;
59006;SDS011;44792;52.760;6.726;2024-02-26T07:11:39;14.13;;;8.98;;
59006;SDS011;44792;52.760;6.726;2024-02-26T07:14:10;15.07;;;8.15;;
59006;SDS011;44792;52.760;6.726;2024-02-26T07:16:37;15.20;;;7.90;;
59006;SDS011;44792;52.760;6.726;2024-02-26T07:19:03;12.18;;;7.25;;
59006;SDS011;44792;52.760;6.726;2024-02-26T07:21:29;11.77;;;7.80;;
59006;SDS011;44792;52.760;6.726;2024-02-26T07:23:55;12.27;;;8.00;;
59006;SDS011;44792;52.760;6.726;2024-02-26T07:26:21;11.10;;;7.43;;
59006;SDS011;44792;52.760;6.726;2024-02-26T07:28:49;12.30;;;7.95;;
59006;SDS011;44792;52.760;6.726;2024-02-26T07:31:15;11.07;;;6.57;;
59006;SDS011;44792;52.760;6.726;2024-02-26T07:33:42;12.15;;;7.53;;
59006;SDS011;44792;52.760;6.726;2024-02-26T07:36:08;10.57;;;6.72;;
59006;SDS011;44792;52.760;6.726;2024-02-26T07:38:33;10.43;;;7.15;;
59006;SDS011;44792;52.760;6.726;2024-02-26T07:40:59;11.50;;;6.80;;
59006;SDS011;44792;52.760;6.726;2024-02-26T07:43:27;12.80;;;7.07;;
59006;SDS011;44792;52.760;6.726;2024-02-26T07:45:53;10.07;;;6.60;;
59006;SDS011;44792;52.760;6.726;2024-02-26T07:48:18;10.02;;;6.82;;
59006;SDS011;44792;52.760;6.726;2024-02-26T07:50:44;9.38;;;6.55;;
59006;SDS011;44792;52.760;6.726;2024-02-26T07:53:10;10.45;;;6.75;;
59006;SDS011;44792;52.760;6.726;2024-02-26T07:55:36;10.43;;;6.55;;
59006;SDS011;44792;52.760;6.726;2024-02-26T07:58:01;11.48;;;6.57;;
59006;SDS011;44792;52.760;6.726;2024-02-26T08:00:27;7.72;;;5.68;;
59006;SDS011;44792;52.760;6.726;2024-02-26T08:02:53;9.07;;;6.30;;
59006;SDS011;44792;52.760;6.726;2024-02-26T08:05:19;8.75;;;6.43;;
59006;SDS011;44792;52.760;6.726;2024-02-26T08:07:45;11.95;;;6.43;;
59006;SDS011;44792;52.760;6.726;2024-02-26T08:10:10;8.57;;;6.00;;
59006;SDS011;44792;52.760;6.726;2024-02-26T08:12:36;8.52;;;6.30;;
59006;SDS011;44792;52.760;6.726;2024-02-26T08:15:02;8.60;;;5.78;;
59006;SDS011;44792;52.760;6.726;2024-02-26T08:17:28;7.60;;;5.93;;
59006;SDS011;44792;52.760;6.726;2024-02-26T08:19:54;8.75;;;5.85;;
59006;SDS011;44792;52.760;6.726;2024-02-26T08:22:19;8.27;;;5.82;;
59006;SDS011;44792;52.760;6.726;2024-02-26T08:24:45;8.73;;;5.80;;
59006;SDS011;44792;52.760;6.726;2024-02-26T08:27:11;8.25;;;5.93;;
59006;SDS011;44792;52.760;6.726;2024-02-26T08:29:36;7.63;;;5.45;;
59006;SDS011;44792;52.760;6.726;2024-02-26T08:32:02;7.60;;;5.35;;
59006;SDS011;44792;52.760;6.726;2024-02-26T08:34:28;6.97;;;5.47;;
59006;SDS011;44792;52.760;6.726;2024-02-26T08:36:54;8.45;;;5.72;;
59006;SDS011;44792;52.760;6.726;2024-02-26T08:39:20;7.80;;;5.38;;
59006;SDS011;44792;52.760;6.726;2024-02-26T08:41:45;9.50;;;5.35;;
59006;SDS011;44792;52.760;6.726;2024-02-26T08:44:11;7.13;;;5.13;;
59006;SDS011;44792;52.760;6.726;2024-02-26T08:46:37;10.90;;;6.45;;
59006;SDS011;44792;52.760;6.726;2024-02-26T08:49:03;7.70;;;5.65;;
59006;SDS011;44792;52.760;6.726;2024-02-26T08:51:29;8.52;;;5.65;;
59006;SDS011;44792;52.760;6.726;2024-02-26T08:53:56;10.27;;;5.82;;
59006;SDS011;44792;52.760;6.726;2024-02-26T08:56:21;9.02;;;6.07;;
59006;SDS011;44792;52.760;6.726;2024-02-26T08:58:47;7.57;;;5.38;;
59006;SDS011;44792;52.760;6.726;2024-02-26T09:01:14;8.32;;;5.93;;
59006;SDS011;44792;52.760;6.726;2024-02-26T09:03:40;7.57;;;5.50;;
59006;SDS011;44792;52.760;6.726;2024-02-26T09:06:06;9.30;;;5.97;;
59006;SDS011;44792;52.760;6.726;2024-02-26T09:08:35;8.98;;;5.47;;
59006;SDS011;44792;52.760;6.726;2024-02-26T09:11:01;8.02;;;5.40;;
59006;SDS011;44792;52.760;6.726;2024-02-26T09:13:28;6.63;;;4.88;;
59006;SDS011;44792;52.760;6.726;2024-02-26T09:15:54;8.00;;;5.40;;
59006;SDS011;44792;52.760;6.726;2024-02-26T09:18:20;10.98;;;5.75;;
59006;SDS011;44792;52.760;6.726;2024-02-26T09:20:46;7.60;;;5.57;;
59006;SDS011;44792;52.760;6.726;2024-02-26T09:23:11;7.40;;;5.32;;
59006;SDS011;44792;52.760;6.726;2024-02-26T09:25:37;8.48;;;6.15;;
59006;SDS011;44792;52.760;6.726;2024-02-26T09:28:03;8.70;;;5.25;;
59006;SDS011;44792;52.760;6.726;2024-02-26T09:30:29;7.72;;;5.53;;
59006;SDS011;44792;52.760;6.726;2024-02-26T09:32:55;7.28;;;5.55;;
59006;SDS011;44792;52.760;6.726;2024-02-26T09:35:20;8.02;;;5.75;;
59006;SDS011;44792;52.760;6.726;2024-02-26T09:37:46;7.05;;;5.05;;
59006;SDS011;44792;52.760;6.726;2024-02-26T09:40:14;8.68;;;5.78;;
59006;SDS011;44792;52.760;6.726;2024-02-26T09:42:44;9.35;;;5.95;;
59006;SDS011;44792;52.760;6.726;2024-02-26T09:45:12;8.23;;;5.53;;
59006;SDS011;44792;52.760;6.726;2024-02-26T09:47:43;8.85;;;6.13;;
59006;SDS011;44792;52.760;6.726;2024-02-26T09:50:10;9.77;;;5.40;;
59006;SDS011;44792;52.760;6.726;2024-02-26T09:52:39;7.30;;;5.68;;
59006;SDS011;44792;52.760;6.726;2024-02-26T09:55:07;8.88;;;5.68;;
59006;SDS011;44792;52.760;6.726;2024-02-26T09:57:36;7.35;;;5.40;;
59006;SDS011;44792;52.760;6.726;2024-02-26T10:00:03;7.32;;;5.53;;
59006;SDS011;44792;52.760;6.726;2024-02-26T10:02:33;9.20;;;5.65;;
59006;SDS011;44792;52.760;6.726;2024-02-26T10:05:02;7.53;;;5.85;;
59006;SDS011;44792;52.760;6.726;2024-02-26T10:07:30;7.53;;;6.07;;
59006;SDS011;44792;52.760;6.726;2024-02-26T10:09:56;8.38;;;5.57;;
59006;SDS011;44792;52.760;6.726;2024-02-26T10:12:22;8.45;;;5.95;;
59006;SDS011;44792;52.760;6.726;2024-02-26T10:14:51;11.70;;;6.15;;
59006;SDS011;44792;52.760;6.726;2024-02-26T10:17:16;7.07;;;5.60;;
59006;SDS011;44792;52.760;6.726;2024-02-26T10:19:43;7.80;;;5.57;;
59006;SDS011;44792;52.760;6.726;2024-02-26T10:22:09;6.43;;;5.28;;
59006;SDS011;44792;52.760;6.726;2024-02-26T10:24:35;8.88;;;5.18;;
59006;SDS011;44792;52.760;6.726;2024-02-26T10:27:01;10.05;;;5.85;;
59006;SDS011;44792;52.760;6.726;2024-02-26T10:29:27;8.52;;;6.03;;
59006;SDS011;44792;52.760;6.726;2024-02-26T10:31:53;8.35;;;5.57;;
59006;SDS011;44792;52.760;6.726;2024-02-26T10:34:19;9.23;;;6.22;;
59006;SDS011;44792;52.760;6.726;2024-02-26T10:36:46;11.75;;;5.90;;
59006;SDS011;44792;52.760;6.726;2024-02-26T10:39:12;7.68;;;6.00;;
59006;SDS011;44792;52.760;6.726;2024-02-26T10:41:41;8.52;;;5.43;;
59006;SDS011;44792;52.760;6.726;2024-02-26T10:44:11;7.97;;;5.85;;
59006;SDS011;44792;52.760;6.726;2024-02-26T10:46:40;11.45;;;6.63;;
59006;SDS011;44792;52.760;6.726;2024-02-26T10:49:12;10.55;;;6.53;;
59006;SDS011;44792;52.760;6.726;2024-02-26T10:51:41;8.82;;;6.03;;
59006;SDS011;44792;52.760;6.726;2024-02-26T10:54:09;7.63;;;5.95;;
59006;SDS011;44792;52.760;6.726;2024-02-26T10:56:40;7.55;;;5.90;;
59006;SDS011;44792;52.760;6.726;2024-02-26T10:59:09;8.35;;;6.32;;
59006;SDS011;44792;52.760;6.726;2024-02-26T11:01:38;9.27;;;6.05;;
59006;SDS011;44792;52.760;6.726;2024-02-26T11:04:06;7.60;;;5.53;;
59006;SDS011;44792;52.760;6.726;2024-02-26T11:06:33;10.55;;;6.00;;
59006;SDS011;44792;52.760;6.726;2024-02-26T11:09:00;10.10;;;6.63;;
59006;SDS011;44792;52.760;6.726;2024-02-26T11:11:28;9.88;;;6.20;;
59006;SDS011;44792;52.760;6.726;2024-02-26T11:13:56;7.50;;;5.88;;
59006;SDS011;44792;52.760;6.726;2024-02-26T11:16:23;8.20;;;6.32;;
59006;SDS011;44792;52.760;6.726;2024-02-26T11:18:50;8.85;;;6.57;;
59006;SDS011;44792;52.760;6.726;2024-02-26T11:21:20;10.13;;;6.43;;
59006;SDS011;44792;52.760;6.726;2024-02-26T11:23:56;8.95;;;5.90;;
59006;SDS011;44792;52.760;6.726;2024-02-26T11:26:22;12.23;;;6.40;;
59006;SDS011;44792;52.760;6.726;2024-02-26T11:28:50;9.88;;;6.50;;
59006;SDS011;44792;52.760;6.726;2024-02-26T11:31:17;10.77;;;7.30;;
59006;SDS011;44792;52.760;6.726;2024-02-26T11:33:50;11.10;;;6.75;;
59006;SDS011;44792;52.760;6.726;2024-02-26T11:36:16;16.27;;;7.65;;
59006;SDS011;44792;52.760;6.726;2024-02-26T11:38:43;11.77;;;7.28;;
59006;SDS011;44792;52.760;6.726;2024-02-26T11:41:09;10.07;;;6.72;;
59006;SDS011;44792;52.760;6.726;2024-02-26T11:43:50;10.18;;;6.93;;
59006;SDS011;44792;52.760;6.726;2024-02-26T11:46:27;10.57;;;6.72;;
59006;SDS011;44792;52.760;6.726;2024-02-26T11:48:58;9.15;;;6.28;;
59006;SDS011;44792;52.760;6.726;2024-02-26T11:51:26;8.48;;;6.07;;
59006;SDS011;44792;52.760;6.726;2024-02-26T11:53:53;9.07;;;5.82;;
59006;SDS011;44792;52.760;6.726;2024-02-26T11:56:21;10.35;;;7.07;;
59006;SDS011;44792;52.760;6.726;2024-02-26T11:58:48;10.10;;;6.45;;
59006;SDS011;44792;52.760;6.726;2024-02-26T12:06:44;11.48;;;7.07;;
59006;SDS011;44792;52.760;6.726;2024-02-26T12:11:55;9.85;;;6.47;;
59006;SDS011;44792;52.760;6.726;2024-02-26T12:14:24;12.20;;;7.78;;
59006;SDS011;44792;52.760;6.726;2024-02-26T12:16:51;10.88;;;6.43;;
59006;SDS011;44792;52.760;6.726;2024-02-26T12:19:17;11.43;;;7.43;;
59006;SDS011;44792;52.760;6.726;2024-02-26T12:21:43;11.45;;;7.07;;
59006;SDS011;44792;52.760;6.726;2024-02-26T12:24:10;10.82;;;7.10;;
59006;SDS011;44792;52.760;6.726;2024-02-26T12:26:39;10.75;;;7.07;;
59006;SDS011;44792;52.760;6.726;2024-02-26T12:29:05;8.82;;;5.97;;
59006;SDS011;44792;52.760;6.726;2024-02-26T12:31:32;10.23;;;6.57;;
59006;SDS011;44792;52.760;6.726;2024-02-26T12:33:59;9.32;;;6.75;;
59006;SDS011;44792;52.760;6.726;2024-02-26T12:36:25;10.73;;;7.03;;
59006;SDS011;44792;52.760;6.726;2024-02-26T12:38:51;12.15;;;6.85;;
59006;SDS011;44792;52.760;6.726;2024-02-26T12:41:17;12.68;;;6.78;;
59006;SDS011;44792;52.760;6.726;2024-02-26T12:43:43;9.18;;;6.55;;
59006;SDS011;44792;52.760;6.726;2024-02-26T12:46:10;9.63;;;6.10;;
59006;SDS011;44792;52.760;6.726;2024-02-26T12:48:36;8.90;;;6.00;;
59006;SDS011;44792;52.760;6.726;2024-02-26T12:51:03;8.40;;;6.18;;
59006;SDS011;44792;52.760;6.726;2024-02-26T12:53:29;9.90;;;6.40;;
59006;SDS011;44792;52.760;6.726;2024-02-26T12:55:55;8.40;;;5.82;;
59006;SDS011;44792;52.760;6.726;2024-02-26T12:58:21;10.57;;;6.70;;
59006;SDS011;44792;52.760;6.726;2024-02-26T13:00:53;9.27;;;6.15;;
59006;SDS011;44792;52.760;6.726;2024-02-26T13:03:20;10.68;;;6.45;;
59006;SDS011;44792;52.760;6.726;2024-02-26T13:05:47;9.45;;;5.70;;
59006;SDS011;44792;52.760;6.726;2024-02-26T13:08:17;9.82;;;5.78;;
59006;SDS011;44792;52.760;6.726;2024-02-26T13:10:43;10.20;;;6.40;;
59006;SDS011;44792;52.760;6.726;2024-02-26T13:13:11;9.73;;;6.35;;
59006;SDS011;44792;52.760;6.726;2024-02-26T13:15:39;8.45;;;5.65;;
59006;SDS011;44792;52.760;6.726;2024-02-26T13:18:11;8.00;;;5.65;;
59006;SDS011;44792;52.760;6.726;2024-02-26T13:20:40;10.88;;;6.82;;
59006;SDS011;44792;52.760;6.726;2024-02-26T13:23:07;11.05;;;6.03;;
59006;SDS011;44792;52.760;6.726;2024-02-26T13:25:34;8.38;;;5.60;;
59006;SDS011;44792;52.760;6.726;2024-02-26T13:28:07;8.00;;;5.68;;
59006;SDS011;44792;52.760;6.726;2024-02-26T13:30:41;9.10;;;6.05;;
59006;SDS011;44792;52.760;6.726;2024-02-26T13:33:07;8.10;;;5.90;;
59006;SDS011;44792;52.760;6.726;2024-02-26T13:35:34;9.77;;;5.70;;
59006;SDS011;44792;52.760;6.726;2024-02-26T13:38:01;9.18;;;5.78;;
59006;SDS011;44792;52.760;6.726;2024-02-26T13:40:27;9.75;;;5.60;;
59006;SDS011;44792;52.760;6.726;2024-02-26T13:42:54;9.02;;;6.13;;
59006;SDS011;44792;52.760;6.726;2024-02-26T13:45:19;9.30;;;6.18;;
59006;SDS011;44792;52.760;6.726;2024-02-26T13:47:45;9.32;;;5.85;;
59006;SDS011;44792;52.760;6.726;2024-02-26T13:50:11;9.40;;;6.15;;
59006;SDS011;44792;52.760;6.726;2024-02-26T13:52:37;9.07;;;5.70;;
59006;SDS011;44792;52.760;6.726;2024-02-26T13:55:02;9.40;;;6.43;;
59006;SDS011;44792;52.760;6.726;2024-02-26T13:57:28;9.20;;;6.38;;
59006;SDS011;44792;52.760;6.726;2024-02-26T13:59:55;10.52;;;6.60;;
59006;SDS011;44792;52.760;6.726;2024-02-26T14:02:21;9.75;;;6.35;;
59006;SDS011;44792;52.760;6.726;2024-02-26T14:04:46;8.93;;;6.10;;
59006;SDS011;44792;52.760;6.726;2024-02-26T14:07:12;9.55;;;6.00;;
59006;SDS011;44792;52.760;6.726;2024-02-26T14:09:38;10.38;;;7.30;;
59006;SDS011;44792;52.760;6.726;2024-02-26T14:12:04;11.75;;;7.10;;
59006;SDS011;44792;52.760;6.726;2024-02-26T14:14:30;9.60;;;6.45;;
59006;SDS011;44792;52.760;6.726;2024-02-26T14:17:00;10.38;;;7.03;;
59006;SDS011;44792;52.760;6.726;2024-02-26T14:19:27;10.25;;;6.78;;
59006;SDS011;44792;52.760;6.726;2024-02-26T14:21:53;11.27;;;7.10;;
59006;SDS011;44792;52.760;6.726;2024-02-26T14:24:19;12.05;;;7.20;;
59006;SDS011;44792;52.760;6.726;2024-02-26T14:26:45;11.07;;;6.97;;
59006;SDS011;44792;52.760;6.726;2024-02-26T14:29:11;10.77;;;7.13;;
59006;SDS011;44792;52.760;6.726;2024-02-26T14:31:36;10.75;;;6.85;;
59006;SDS011;44792;52.760;6.726;2024-02-26T14:34:02;11.98;;;7.70;;
59006;SDS011;44792;52.760;6.726;2024-02-26T14:36:28;12.65;;;8.40;;
59006;SDS011;44792;52.760;6.726;2024-02-26T14:38:54;11.23;;;7.57;;